createdAt,value
2022-07-25T00:00:09.627Z,2.25
2022-07-25T00:03:11.172Z,1.98
2022-07-25T00:06:13.536Z,2.08
2022-07-25T00:09:19.351Z,2.10
2022-07-25T00:12:21.564Z,2.15
2022-07-25T00:15:22.996Z,1.83
2022-07-25T00:18:24.501Z,2.22
2022-07-25T00:21:26.088Z,2.28
2022-07-25T00:24:27.645Z,1.77
2022-07-25T00:27:29.114Z,2.50
2022-07-25T00:30:30.590Z,2.10
2022-07-25T00:33:32.317Z,1.83
2022-07-25T00:36:33.879Z,2.20
2022-07-25T00:39:35.823Z,2.17
2022-07-25T00:42:38.322Z,2.30
2022-07-25T00:45:39.842Z,1.95
2022-07-25T00:48:41.542Z,2.28
2022-07-25T00:51:43.475Z,2.70
2022-07-25T00:54:45.217Z,2.30
2022-07-25T00:57:46.703Z,2.30
2022-07-25T01:00:48.520Z,2.30
2022-07-25T01:03:50.074Z,2.45
2022-07-25T01:06:52.012Z,2.17
2022-07-25T01:09:54.037Z,2.17
2022-07-25T01:12:55.693Z,1.95
2022-07-25T01:15:57.278Z,2.30
2022-07-25T01:18:59.042Z,1.95
2022-07-25T01:22:00.663Z,2.40
2022-07-25T01:25:02.128Z,2.40
2022-07-25T01:28:03.811Z,2.25
2022-07-25T01:31:05.951Z,2.20
2022-07-25T01:34:07.698Z,2.40
2022-07-25T01:37:09.298Z,2.10
2022-07-25T01:40:11.612Z,2.50
2022-07-25T01:43:14.041Z,2.40
2022-07-25T01:46:15.632Z,2.00
2022-07-25T01:49:17.204Z,2.40
2022-07-25T01:52:18.835Z,2.25
2022-07-25T01:55:20.350Z,2.08
2022-07-25T01:58:22.033Z,2.33
2022-07-25T02:01:24.408Z,2.28
2022-07-25T02:04:25.924Z,2.42
2022-07-25T02:07:27.512Z,2.35
2022-07-25T02:10:28.954Z,2.30
2022-07-25T02:13:30.467Z,1.98
2022-07-25T02:16:31.963Z,2.35
2022-07-25T02:19:34.233Z,2.53
2022-07-25T02:22:35.856Z,2.33
2022-07-25T02:25:37.571Z,2.38
2022-07-25T02:28:39.577Z,2.20
2022-07-25T02:31:41.049Z,2.03
2022-07-25T02:34:42.495Z,2.20
2022-07-25T02:37:44.209Z,2.30
2022-07-25T02:40:49.944Z,2.20
2022-07-25T02:43:51.475Z,1.90
2022-07-25T02:46:52.968Z,2.20
2022-07-25T02:49:54.484Z,2.42
2022-07-25T02:52:55.951Z,2.50
2022-07-25T02:55:57.530Z,2.30
2022-07-25T02:58:59.827Z,2.47
2022-07-25T03:02:01.359Z,2.50
2022-07-25T03:05:05.486Z,2.40
2022-07-25T03:11:08.262Z,2.25
2022-07-25T03:14:10.181Z,2.55
2022-07-25T03:17:11.860Z,2.45
2022-07-25T03:20:13.494Z,2.55
2022-07-25T03:23:14.972Z,2.67
2022-07-25T03:26:16.429Z,2.80
2022-07-25T03:29:17.958Z,2.55
2022-07-25T03:32:19.562Z,2.55
2022-07-25T03:35:21.449Z,2.75
2022-07-25T03:38:24.606Z,2.80
2022-07-25T03:41:27.200Z,2.70
2022-07-25T03:44:29.531Z,2.42
2022-07-25T03:47:31.028Z,2.45
2022-07-25T03:50:32.519Z,2.25
2022-07-25T03:53:54.373Z,2.40
2022-07-25T03:56:55.851Z,2.90
2022-07-25T03:59:57.270Z,2.70
2022-07-25T04:02:58.974Z,2.63
2022-07-25T04:06:00.470Z,2.78
2022-07-25T04:09:02.357Z,2.17
2022-07-25T04:12:04.164Z,2.28
2022-07-25T04:15:06.295Z,2.60
2022-07-25T04:18:07.751Z,2.25
2022-07-25T04:21:13.749Z,2.40
2022-07-25T04:24:15.156Z,2.80
2022-07-25T04:27:16.774Z,2.60
2022-07-25T04:30:23.941Z,2.63
2022-07-25T04:33:26.891Z,2.53
2022-07-25T04:36:28.427Z,2.55
2022-07-25T04:39:29.939Z,2.90
2022-07-25T04:42:31.449Z,2.58
2022-07-25T04:45:34.743Z,2.83
2022-07-25T04:48:36.291Z,3.20
2022-07-25T04:51:37.852Z,2.60
2022-07-25T04:54:39.268Z,2.67
2022-07-25T04:57:41.042Z,2.33
2022-07-25T05:00:42.667Z,2.28
2022-07-25T05:03:50.210Z,2.67
2022-07-25T05:06:52.185Z,2.80
2022-07-25T05:09:53.651Z,2.90
2022-07-25T05:12:56.365Z,2.28
2022-07-25T05:15:57.828Z,2.80
2022-07-25T05:18:59.334Z,2.60
2022-07-25T05:22:01.068Z,2.58
2022-07-25T05:25:02.537Z,2.70
2022-07-25T05:28:04.496Z,2.70
2022-07-25T05:31:06.238Z,2.97
2022-07-25T05:34:08.166Z,2.92
2022-07-25T05:37:09.900Z,2.50
2022-07-25T05:40:11.485Z,2.63
2022-07-25T05:43:13.002Z,2.97
2022-07-25T05:46:15.225Z,2.40
2022-07-25T05:49:16.769Z,2.58
2022-07-25T05:52:18.308Z,2.70
2022-07-25T05:55:19.742Z,2.70
2022-07-25T05:58:23.972Z,2.95
2022-07-25T06:01:29.229Z,2.83
2022-07-25T06:04:30.741Z,2.60
2022-07-25T06:07:32.244Z,3.03
2022-07-25T06:10:33.789Z,2.97
2022-07-25T06:13:35.479Z,2.78
2022-07-25T06:16:37.428Z,2.65
2022-07-25T06:19:38.986Z,2.70
2022-07-25T06:22:40.466Z,3.00
2022-07-25T06:25:41.983Z,3.40
2022-07-25T06:28:43.463Z,3.35
2022-07-25T06:31:47.057Z,2.80
2022-07-25T06:34:48.882Z,3.38
2022-07-25T06:37:50.436Z,3.55
2022-07-25T06:40:51.885Z,3.60
2022-07-25T06:43:53.332Z,3.10
2022-07-25T06:46:54.911Z,3.35
2022-07-25T06:49:57.088Z,3.17
2022-07-25T06:52:58.590Z,3.00
2022-07-25T06:56:00.108Z,3.00
2022-07-25T06:59:01.552Z,3.40
2022-07-25T07:02:03.016Z,3.05
2022-07-25T07:05:04.782Z,3.65
2022-07-25T07:08:06.294Z,3.30
2022-07-25T07:11:07.738Z,2.90
2022-07-25T07:14:09.661Z,2.88
2022-07-25T07:17:11.325Z,3.40
2022-07-25T07:20:12.778Z,3.10
2022-07-25T07:23:16.940Z,3.58
2022-07-25T07:26:19.673Z,2.85
2022-07-25T07:29:21.338Z,3.03
2022-07-25T07:32:22.804Z,2.95
2022-07-25T07:35:25.346Z,3.30
2022-07-25T07:38:29.065Z,3.00
2022-07-25T07:41:30.500Z,3.50
2022-07-25T07:44:31.984Z,3.00
2022-07-25T07:47:33.469Z,2.70
2022-07-25T07:50:35.060Z,3.05
2022-07-25T07:53:55.012Z,3.00
2022-07-25T07:56:56.543Z,3.45
2022-07-25T07:59:57.998Z,2.70
2022-07-25T08:03:00.255Z,2.50
2022-07-25T08:06:01.910Z,2.63
2022-07-25T08:09:04.081Z,2.88
2022-07-25T08:12:05.966Z,2.70
2022-07-25T08:15:08.847Z,2.55
2022-07-25T08:18:17.904Z,2.47
2022-07-25T08:21:20.048Z,2.70
2022-07-25T08:24:21.497Z,2.85
2022-07-25T08:27:23.116Z,2.75
2022-07-25T08:30:24.926Z,3.00
2022-07-25T08:33:26.702Z,2.97
2022-07-25T08:36:33.699Z,2.88
2022-07-25T08:39:36.345Z,2.80
2022-07-25T08:42:38.066Z,2.95
2022-07-25T08:45:50.077Z,2.97
2022-07-25T08:48:52.148Z,2.90
2022-07-25T08:51:55.299Z,2.80
2022-07-25T08:54:57.689Z,2.67
2022-07-25T08:57:59.171Z,2.88
2022-07-25T09:01:00.618Z,2.78
2022-07-25T09:04:03.875Z,3.38
2022-07-25T09:07:08.318Z,2.75
2022-07-25T09:10:13.611Z,2.70
2022-07-25T09:13:16.650Z,3.00
2022-07-25T09:16:29.157Z,2.70
2022-07-25T09:19:31.571Z,2.83
2022-07-25T09:22:44.225Z,2.90
2022-07-25T09:25:45.667Z,2.75
2022-07-25T09:28:49.192Z,2.42
2022-07-25T09:31:52.942Z,2.85
2022-07-25T09:34:54.499Z,2.83
2022-07-25T09:38:09.994Z,2.33
2022-07-25T09:41:12.161Z,3.20
2022-07-25T09:44:17.804Z,2.92
2022-07-25T09:47:19.329Z,2.72
2022-07-25T09:50:22.447Z,2.90
2022-07-25T09:53:24.455Z,2.90
2022-07-25T09:56:26.322Z,2.83
2022-07-25T09:59:27.835Z,2.70
2022-07-25T10:02:32.290Z,2.50
2022-07-25T10:06:12.051Z,2.85
2022-07-25T10:09:14.277Z,2.38
2022-07-25T10:12:20.294Z,2.45
2022-07-25T10:15:21.859Z,2.60
2022-07-25T10:18:25.324Z,2.78
2022-07-25T10:21:28.488Z,2.60
2022-07-25T10:24:35.616Z,2.70
2022-07-25T10:27:43.181Z,2.47
2022-07-25T10:30:46.170Z,2.90
2022-07-25T10:33:56.382Z,2.63
2022-07-25T10:37:08.371Z,2.88
2022-07-25T10:40:10.503Z,2.38
2022-07-25T10:43:19.151Z,2.70
2022-07-25T10:46:23.466Z,2.75
2022-07-25T10:49:32.162Z,2.40
2022-07-25T10:52:42.281Z,2.25
2022-07-25T10:59:07.424Z,2.03
2022-07-25T11:02:18.030Z,2.40
2022-07-25T11:05:19.608Z,2.40
2022-07-25T11:08:30.948Z,3.08
2022-07-25T11:11:38.230Z,2.33
2022-07-25T11:14:42.511Z,2.20
2022-07-25T11:17:53.264Z,2.50
2022-07-25T11:21:06.236Z,2.20
2022-07-25T11:24:08.054Z,2.72
2022-07-25T11:27:12.811Z,2.15
2022-07-25T11:30:17.246Z,2.50
2022-07-25T11:33:18.725Z,2.10
2022-07-25T11:36:20.423Z,2.17
2022-07-25T11:39:23.758Z,2.42
2022-07-25T11:42:27.481Z,2.55
2022-07-25T11:45:33.492Z,2.10
2022-07-25T11:48:39.823Z,2.53
2022-07-25T11:51:41.745Z,2.28
2022-07-25T11:55:00.542Z,2.42
2022-07-25T11:58:04.121Z,2.55
2022-07-25T12:04:18.362Z,2.22
2022-07-25T12:07:19.788Z,2.35
2022-07-25T12:10:33.721Z,3.03
2022-07-25T12:13:37.077Z,2.45
2022-07-25T12:16:39.494Z,2.30
2022-07-25T12:19:46.605Z,2.53
2022-07-25T12:22:50.223Z,2.45
2022-07-25T12:25:51.881Z,2.75
2022-07-25T12:28:53.531Z,2.47
2022-07-25T12:31:55.003Z,2.50
2022-07-25T12:34:56.426Z,2.28
2022-07-25T12:37:58.410Z,2.63
2022-07-25T12:41:00.667Z,2.40
2022-07-25T12:44:04.178Z,2.70
2022-07-25T12:50:07.871Z,2.38
2022-07-25T12:53:09.380Z,1.90
2022-07-25T12:56:10.911Z,1.90
2022-07-25T12:59:12.811Z,1.90
2022-07-25T13:02:15.224Z,1.83
2022-07-25T13:05:17.283Z,1.65
2022-07-25T13:08:18.806Z,1.63
2022-07-25T13:11:20.276Z,1.60
2022-07-25T13:14:21.938Z,1.75
2022-07-25T13:17:27.303Z,2.00
2022-07-25T13:20:29.667Z,2.10
2022-07-25T13:23:31.264Z,1.63
2022-07-25T13:26:33.707Z,1.80
2022-07-25T13:29:35.382Z,1.65
2022-07-25T13:32:37.363Z,1.52
2022-07-25T13:35:39.815Z,2.00
2022-07-25T13:38:43.212Z,1.73
2022-07-25T13:41:44.652Z,1.98
2022-07-25T13:44:46.097Z,1.98
2022-07-25T13:47:56.320Z,2.05
2022-07-25T13:51:07.730Z,1.77
2022-07-25T13:54:09.263Z,1.90
2022-07-25T13:57:10.805Z,1.67
2022-07-25T14:00:12.646Z,1.92
2022-07-25T14:03:14.127Z,2.15
2022-07-25T14:06:15.639Z,1.85
2022-07-25T14:09:18.863Z,2.00
2022-07-25T14:12:20.452Z,1.77
2022-07-25T14:15:22.137Z,1.95
2022-07-25T14:18:23.563Z,2.00
2022-07-25T14:21:25.499Z,1.92
2022-07-25T14:24:27.108Z,2.13
2022-07-25T14:27:28.633Z,2.17
2022-07-25T14:30:30.232Z,1.88
2022-07-25T14:33:31.682Z,2.08
2022-07-25T14:36:33.660Z,2.10
2022-07-25T14:39:35.141Z,2.22
2022-07-25T14:42:37.063Z,2.30
2022-07-25T14:45:38.646Z,1.80
2022-07-25T14:48:40.275Z,2.15
2022-07-25T14:51:42.913Z,1.95
2022-07-25T14:54:44.558Z,2.20
2022-07-25T14:57:46.067Z,2.20
2022-07-25T15:00:47.571Z,1.77
2022-07-25T15:03:49.340Z,2.20
2022-07-25T15:06:52.002Z,2.00
2022-07-25T15:09:53.544Z,2.30
2022-07-25T15:13:20.525Z,2.47
2022-07-25T15:16:17.381Z,2.33
2022-07-25T15:19:18.913Z,1.80
2022-07-25T15:22:21.182Z,1.98
2022-07-25T15:25:59.537Z,2.30
2022-07-25T15:28:44.323Z,4.50
2022-07-25T15:31:49.113Z,3.50
2022-07-25T15:34:50.669Z,4.38
2022-07-25T15:37:52.463Z,2.60
2022-07-25T15:40:54.023Z,3.45
2022-07-25T15:43:55.477Z,2.28
2022-07-25T15:46:57.145Z,2.35
2022-07-25T15:49:58.998Z,2.20
2022-07-25T15:53:00.515Z,2.25
2022-07-25T15:56:02.089Z,2.22
2022-07-25T15:59:03.584Z,5.47
2022-07-25T16:02:09.389Z,3.20
2022-07-25T16:05:10.859Z,2.33
2022-07-25T16:08:12.309Z,3.55
2022-07-25T16:11:14.118Z,1.90
2022-07-25T16:14:15.574Z,2.10
2022-07-25T16:17:17.534Z,1.88
2022-07-25T16:20:20.313Z,2.30
2022-07-25T16:23:24.130Z,2.08
2022-07-25T16:26:25.775Z,4.05
2022-07-25T16:29:27.376Z,1.80
2022-07-25T16:32:29.678Z,2.97
2022-07-25T16:35:32.268Z,1.80
2022-07-25T16:38:33.695Z,1.75
2022-07-25T16:41:35.200Z,3.08
2022-07-25T16:44:36.639Z,1.40
2022-07-25T16:47:40.120Z,1.60
2022-07-25T16:50:43.695Z,1.85
2022-07-25T16:53:45.122Z,1.83
2022-07-25T16:56:50.136Z,1.65
2022-07-25T16:59:54.314Z,3.15
2022-07-25T17:02:55.764Z,1.75
2022-07-25T17:05:57.636Z,1.50
2022-07-25T17:08:59.462Z,1.60
2022-07-25T17:12:01.388Z,1.10
2022-07-25T17:15:04.536Z,1.50
2022-07-25T17:18:06.083Z,1.65
2022-07-25T17:21:09.346Z,1.33
2022-07-25T17:24:10.922Z,1.20
2022-07-25T17:27:12.840Z,1.42
2022-07-25T17:30:14.283Z,2.75
2022-07-25T17:33:15.790Z,1.70
2022-07-25T17:36:17.369Z,9.90
2022-07-25T17:39:18.861Z,4.38
2022-07-25T17:42:23.914Z,5.35
2022-07-25T17:45:25.957Z,4.68
2022-07-25T17:48:27.562Z,2.13
2022-07-25T17:51:31.496Z,1.40
2022-07-25T17:54:33.548Z,0.88
2022-07-25T17:57:35.055Z,1.10
2022-07-25T18:00:37.356Z,1.00
2022-07-25T18:03:38.968Z,1.83
2022-07-25T18:06:40.467Z,1.30
2022-07-25T18:09:41.991Z,0.70
2022-07-25T18:12:44.678Z,0.70
2022-07-25T18:15:47.000Z,0.70
2022-07-25T18:18:48.549Z,0.50
2022-07-25T18:21:50.013Z,0.40
2022-07-25T18:24:51.430Z,0.50
2022-07-25T18:27:53.029Z,0.50
2022-07-25T18:30:55.036Z,0.70
2022-07-25T18:33:56.572Z,0.47
2022-07-25T18:36:58.251Z,0.55
2022-07-25T18:39:59.787Z,0.60
2022-07-25T18:43:01.205Z,0.60
2022-07-25T18:46:06.716Z,0.52
2022-07-25T18:49:11.761Z,0.55
2022-07-25T18:52:13.301Z,0.50
2022-07-25T18:55:14.875Z,0.45
2022-07-25T18:58:16.430Z,0.50
2022-07-25T19:01:17.986Z,0.60
2022-07-25T19:04:19.502Z,0.40
2022-07-25T19:07:21.130Z,0.70
2022-07-25T19:10:22.594Z,0.50
2022-07-25T19:13:47.650Z,0.30
2022-07-25T19:16:45.739Z,0.30
2022-07-25T19:19:47.343Z,0.28
2022-07-25T19:22:49.526Z,0.50
2022-07-25T19:25:51.052Z,0.40
2022-07-25T19:28:52.517Z,0.40
2022-07-25T19:31:54.129Z,0.50
2022-07-25T19:34:55.557Z,0.40
2022-07-25T19:37:57.009Z,0.40
2022-07-25T19:40:59.306Z,0.30
2022-07-25T19:44:01.145Z,0.40
2022-07-25T19:47:02.849Z,0.30
2022-07-25T19:50:04.637Z,0.50
2022-07-25T19:53:06.122Z,0.38
2022-07-25T19:56:08.446Z,0.30
2022-07-25T19:59:09.987Z,0.30
2022-07-25T20:02:12.052Z,0.30
2022-07-25T20:05:13.566Z,0.35
2022-07-25T20:08:15.245Z,0.35
2022-07-25T20:11:16.809Z,0.30
2022-07-25T20:14:18.267Z,0.30
2022-07-25T20:17:19.892Z,0.20
2022-07-25T20:20:21.401Z,0.40
2022-07-25T20:23:23.412Z,0.30
2022-07-25T20:26:25.386Z,0.40
2022-07-25T20:29:26.862Z,0.30
2022-07-25T20:32:31.973Z,0.30
2022-07-25T20:35:34.393Z,0.40
2022-07-25T20:38:36.151Z,0.40
2022-07-25T20:41:38.236Z,0.30
2022-07-25T20:44:39.979Z,0.57
2022-07-25T20:47:41.553Z,0.30
2022-07-25T20:50:43.979Z,0.20
2022-07-25T20:53:45.569Z,0.40
2022-07-25T20:56:54.765Z,0.38
2022-07-25T20:59:56.375Z,0.30
2022-07-25T21:02:58.497Z,0.30
2022-07-25T21:06:01.328Z,0.40
2022-07-25T21:09:03.395Z,0.40
2022-07-25T21:12:05.040Z,0.30
2022-07-25T21:15:08.075Z,0.40
2022-07-25T21:18:09.714Z,0.30
2022-07-25T21:21:12.344Z,0.35
2022-07-25T21:24:14.137Z,0.32
2022-07-25T21:27:16.820Z,0.50
2022-07-25T21:30:18.544Z,0.40
2022-07-25T21:33:20.048Z,0.30
2022-07-25T21:36:21.581Z,0.43
2022-07-25T21:39:23.051Z,0.40
2022-07-25T21:42:24.533Z,0.30
2022-07-25T21:45:26.971Z,0.47
2022-07-25T21:48:51.740Z,0.43
2022-07-25T21:51:55.693Z,0.35
2022-07-25T21:55:01.472Z,0.40
2022-07-25T21:58:03.176Z,0.40
2022-07-25T22:01:04.748Z,0.40
2022-07-25T22:04:06.371Z,0.30
2022-07-25T22:07:07.946Z,0.40
2022-07-25T22:10:11.941Z,0.47
2022-07-25T22:16:16.433Z,0.30
2022-07-25T22:19:21.961Z,0.30
2022-07-25T22:22:23.901Z,0.30
2022-07-25T22:25:25.491Z,0.38
2022-07-25T22:28:26.975Z,0.50
2022-07-25T22:31:28.520Z,0.40
2022-07-25T22:34:30.152Z,0.40
2022-07-25T22:37:32.564Z,0.32
2022-07-25T22:40:34.570Z,0.55
2022-07-25T22:43:57.433Z,0.60
2022-07-25T22:46:57.566Z,0.50
2022-07-25T22:49:59.031Z,0.30
2022-07-25T22:53:00.462Z,0.40
2022-07-25T22:56:01.919Z,0.35
2022-07-25T22:59:03.492Z,0.45
2022-07-25T23:02:05.006Z,0.30
2022-07-25T23:05:07.389Z,0.45
2022-07-25T23:08:08.838Z,0.50
2022-07-25T23:11:10.274Z,0.43
2022-07-25T23:14:11.941Z,0.40
2022-07-25T23:17:20.134Z,0.35
2022-07-25T23:20:21.820Z,0.40
2022-07-25T23:23:23.237Z,0.40
2022-07-25T23:26:24.661Z,0.40
2022-07-25T23:29:26.154Z,0.40
2022-07-25T23:32:27.615Z,0.50
2022-07-25T23:35:29.118Z,0.40
2022-07-25T23:38:30.623Z,0.47
2022-07-25T23:41:32.083Z,0.40
2022-07-25T23:44:33.640Z,0.35
2022-07-25T23:47:39.630Z,0.30
2022-07-25T23:50:42.239Z,0.55
2022-07-25T23:53:43.983Z,0.50
2022-07-25T23:56:45.434Z,0.40
2022-07-25T23:59:46.887Z,0.40
